Time;durP1;ratioP1;P1;durP2;ratioP2;P2;SDS_P1;SDS_P2;PMS_P1;PMS_P2;Temp;Humidity;BMP_temperature;BMP_pressure;BME280_temperature;BME280_humidity;BME280_pressure;Samples;Min_cycle;Max_cycle;Signal;HPM_P1;HPM_P2
2022/05/27 00:00:53;;;;;;;11.40;3.28;;;;;;;14.67;74.24;101849.81;5078977;28;20079;-85
2022/05/27 00:03:19;;;;;;;18.35;4.35;;;;;;;14.67;74.35;101847.09;5063956;28;20033;-85
2022/05/27 00:05:48;;;;;;;18.75;4.22;;;;;;;14.67;74.76;101841.69;5052891;28;20087;-84
2022/05/27 00:08:13;;;;;;;13.38;4.00;;;;;;;14.70;74.69;101847.84;5057767;28;20433;-85
2022/05/27 00:10:39;;;;;;;9.40;3.28;;;;;;;14.69;74.83;101833.44;5062515;28;20124;-84
2022/05/27 00:13:05;;;;;;;15.48;3.70;;;;;;;14.66;74.68;101831.84;5061216;28;20021;-84
2022/05/27 00:15:30;;;;;;;10.40;2.83;;;;;;;14.67;74.72;101829.97;5064432;28;20108;-84
2022/05/27 00:17:55;;;;;;;14.80;3.90;;;;;;;14.66;74.79;101834.53;5077587;28;20025;-84
2022/05/27 00:20:21;;;;;;;13.65;4.38;;;;;;;14.64;75.04;101828.38;5056052;28;20111;-84
2022/05/27 00:22:46;;;;;;;11.57;3.50;;;;;;;14.65;75.69;101824.69;5051584;28;20473;-84
2022/05/27 00:25:12;;;;;;;16.30;4.22;;;;;;;14.62;75.59;101827.63;5051361;28;20051;-84
2022/05/27 00:27:37;;;;;;;15.73;3.60;;;;;;;14.65;75.82;101831.94;5059418;28;20039;-84
2022/05/27 00:30:03;;;;;;;13.40;3.88;;;;;;;14.62;75.48;101833.03;5052511;28;20083;-84
2022/05/27 00:32:29;;;;;;;12.68;3.67;;;;;;;14.60;75.95;101832.25;5051866;28;20391;-85
2022/05/27 00:34:55;;;;;;;12.57;3.13;;;;;;;14.59;76.13;101830.53;5051488;28;20032;-85
2022/05/27 00:37:20;;;;;;;11.10;3.28;;;;;;;14.61;75.87;101834.03;5062159;28;20039;-84
2022/05/27 00:39:45;;;;;;;11.57;3.85;;;;;;;14.62;75.70;101835.75;5064571;28;20028;-84
2022/05/27 00:42:10;;;;;;;12.25;3.55;;;;;;;14.63;76.07;101829.34;5061908;28;20472;-85
2022/05/27 00:44:36;;;;;;;14.15;3.92;;;;;;;14.63;75.90;101829.34;5050623;28;20059;-84
2022/05/27 00:47:15;;;;;;;11.95;3.28;;;;;;;14.65;75.65;101819.28;5068203;28;20082;-84
2022/05/27 00:49:46;;;;;;;13.15;4.00;;;;;;;14.65;75.79;101819.28;5066487;28;20029;-85
2022/05/27 00:52:15;;;;;;;13.90;3.83;;;;;;;14.63;75.90;101823.94;5057575;28;20104;-85
2022/05/27 00:54:41;;;;;;;13.55;3.30;;;;;;;14.65;76.24;101815.72;5062886;28;20029;-84
2022/05/27 00:57:15;;;;;;;10.68;3.65;;;;;;;14.64;76.46;101819.38;5062836;28;20467;-85
2022/05/27 01:00:09;;;;;;;17.13;3.80;;;;;;;14.66;76.46;101817.44;5066602;28;20025;-85
2022/05/27 01:02:35;;;;;;;21.42;5.13;;;;;;;14.63;77.21;101813.13;5055264;28;20369;-85
2022/05/27 01:05:02;;;;;;;16.20;4.15;;;;;;;14.63;77.42;101806.88;5062563;28;20031;-85
2022/05/27 01:07:28;;;;;;;16.48;4.40;;;;;;;14.62;78.42;101814.09;5051788;28;20031;-85
2022/05/27 01:09:53;;;;;;;12.90;4.38;;;;;;;14.60;78.91;101801.66;5051117;28;20484;-85
2022/05/27 01:12:49;;;;;;;15.65;3.97;;;;;;;14.54;79.05;101808.38;5053437;28;20063;-85
2022/05/27 01:15:34;;;;;;;17.13;4.40;;;;;;;14.53;79.64;101812.06;5056895;28;20495;-85
2022/05/27 01:18:14;;;;;;;19.35;4.75;;;;;;;14.49;79.40;101815.97;5055788;28;20078;-85
2022/05/27 01:21:05;;;;;;;11.30;3.83;;;;;;;14.46;79.75;101811.63;5054271;28;20037;-85
2022/05/27 01:23:54;;;;;;;17.63;4.95;;;;;;;14.44;79.75;101804.63;5055145;28;20107;-85
2022/05/27 01:26:51;;;;;;;20.70;5.20;;;;;;;14.43;80.84;101816.44;5066354;28;20021;-85
2022/05/27 01:29:35;;;;;;;14.70;4.68;;;;;;;14.39;83.03;101804.09;5050636;28;20552;-84
2022/05/27 01:32:03;;;;;;;20.50;5.63;;;;;;;14.36;81.88;101809.75;5050842;28;20119;-84
2022/05/27 01:35:01;;;;;;;16.45;5.32;;;;;;;14.37;81.23;101796.09;5056331;28;20028;-85
2022/05/27 01:37:45;;;;;;;13.90;5.15;;;;;;;14.32;82.96;101804.56;5055036;28;20033;-84
2022/05/27 01:40:28;;;;;;;18.65;5.57;;;;;;;14.32;82.37;101814.53;5050829;28;20025;-84
2022/05/27 01:43:15;;;;;;;16.70;4.47;;;;;;;14.29;83.45;101806.63;5053840;28;20029;-84
2022/05/27 01:46:05;;;;;;;17.73;5.63;;;;;;;14.27;83.63;101806.72;5066512;28;20083;-84
2022/05/27 01:48:53;;;;;;;20.20;5.70;;;;;;;14.25;83.83;101806.00;5053372;28;20021;-84
2022/05/27 01:51:26;;;;;;;17.33;5.28;;;;;;;14.22;84.67;101802.66;5066639;28;20136;-85
2022/05/27 01:53:57;;;;;;;16.35;5.22;;;;;;;14.18;85.03;101806.56;5056906;28;20082;-84
2022/05/27 01:56:35;;;;;;;18.38;5.50;;;;;;;14.15;85.24;101802.25;5057122;28;20029;-84
2022/05/27 01:59:23;;;;;;;19.00;5.28;;;;;;;14.13;85.66;101810.47;5061940;28;20024;-84
2022/05/27 02:01:56;;;;;;;16.75;5.15;;;;;;;14.07;87.45;101805.50;5068091;28;20044;-83
2022/05/27 02:04:36;;;;;;;18.05;5.63;;;;;;;14.07;87.56;101804.63;5065015;28;20111;-84
2022/05/27 02:07:11;;;;;;;19.10;6.05;;;;;;;14.06;87.13;101808.31;5083888;28;20028;-83
2022/05/27 02:09:53;;;;;;;20.55;6.15;;;;;;;13.99;87.16;101797.94;5063170;28;20146;-82
2022/05/27 02:12:26;;;;;;;20.38;5.90;;;;;;;13.92;88.40;101807.47;5070099;28;20037;-83
2022/05/27 02:15:01;;;;;;;17.17;5.82;;;;;;;13.92;88.94;101804.75;5072762;28;20032;-82
2022/05/27 02:17:35;;;;;;;22.13;6.43;;;;;;;13.87;90.27;101801.53;5063952;28;20024;-82
2022/05/27 02:20:08;;;;;;;22.13;6.82;;;;;;;13.84;89.93;101806.31;5055593;28;20446;-82
2022/05/27 02:22:39;;;;;;;22.55;6.57;;;;;;;13.83;90.47;101804.59;5067872;28;20086;-82
2022/05/27 02:25:23;;;;;;;20.75;5.78;;;;;;;13.81;90.37;101807.41;5059873;28;20025;-82
2022/05/27 02:28:10;;;;;;;22.23;6.70;;;;;;;13.78;90.75;101804.91;5054725;28;20134;-82
2022/05/27 02:30:39;;;;;;;20.05;6.28;;;;;;;13.73;91.18;101802.53;5052880;28;20136;-81
2022/05/27 02:36:03;;;;;;;20.15;6.72;;;;;;;13.72;92.48;101795.41;5063491;28;20067;-82
2022/05/27 02:38:29;;;;;;;20.98;6.68;;;;;;;13.70;92.51;101797.34;5055730;28;20032;-82
2022/05/27 02:40:58;;;;;;;21.38;6.97;;;;;;;13.68;93.20;101793.91;5050809;28;20039;-82
2022/05/27 02:43:23;;;;;;;;;;;;;;;13.76;89.79;101793.34;5063935;28;20027;-83
2022/05/27 02:45:57;;;;;;;21.45;7.40;;;;;;;13.65;92.96;101788.72;5067864;28;19912;-83
2022/05/27 02:48:32;;;;;;;18.38;7.20;;;;;;;13.64;93.64;101786.97;5074152;28;20319;-82
2022/05/27 02:51:37;;;;;;;22.13;7.53;;;;;;;13.66;94.38;101795.84;5063365;28;20039;-83
2022/05/27 02:54:18;;;;;;;21.65;7.55;;;;;;;13.64;93.73;101795.94;5069335;28;20034;-83
2022/05/27 02:56:49;;;;;;;19.40;7.30;;;;;;;13.58;94.16;101796.38;5066014;28;20265;-83
2022/05/27 02:59:17;;;;;;;17.98;6.53;;;;;;;13.54;94.05;101799.41;5054340;28;20426;-84
2022/05/27 03:01:45;;;;;;;20.57;7.33;;;;;;;13.54;94.71;101788.59;5063801;28;20024;-83
2022/05/27 03:04:10;;;;;;;18.45;6.53;;;;;;;13.49;94.30;101794.34;5054020;28;20290;-84
2022/05/27 03:07:23;;;;;;;22.65;7.38;;;;;;;13.52;94.05;101788.72;5062597;28;20650;-84
2022/05/27 03:09:54;;;;;;;22.25;7.05;;;;;;;13.45;95.08;101782.03;4982336;28;20105;-84
2022/05/27 03:12:37;;;;;;;23.30;8.77;;;;;;;13.46;94.77;101786.47;4972715;28;20494;-83
2022/05/27 03:15:18;;;;;;;20.23;8.85;;;;;;;13.42;95.22;101782.25;4973161;28;20108;-84
2022/05/27 03:18:02;;;;;;;21.20;8.93;;;;;;;13.42;95.73;101788.50;4989761;28;20042;-84
2022/05/27 03:20:46;;;;;;;19.50;8.07;;;;;;;13.42;94.99;101782.25;4974055;28;20046;-84
2022/05/27 03:23:32;;;;;;;21.38;9.05;;;;;;;13.42;96.21;101785.78;4962937;28;20030;-84
2022/05/27 03:26:05;;;;;;;21.67;9.77;;;;;;;13.39;95.77;101779.75;4959174;28;20273;-83
2022/05/27 03:28:52;;;;;;;20.55;8.48;;;;;;;13.41;95.87;101785.91;4968735;28;20074;-84
2022/05/27 03:32:01;;;;;;;20.90;8.48;;;;;;;13.42;95.88;101791.19;4987814;28;20117;-84
2022/05/27 03:34:51;;;;;;;24.17;10.13;;;;;;;13.42;96.14;101788.50;4970486;28;20038;-84
2022/05/27 03:37:20;;;;;;;21.13;9.10;;;;;;;13.45;96.85;101776.63;4974212;28;20049;-83
2022/05/27 03:40:10;;;;;;;23.08;9.93;;;;;;;13.46;96.46;101781.91;4973533;28;20045;-83
2022/05/27 03:42:37;;;;;;;27.23;9.88;;;;;;;13.46;97.23;101781.06;4987480;28;20432;-84
2022/05/27 03:45:13;;;;;;;21.27;10.07;;;;;;;13.46;97.87;101786.47;4982815;28;20059;-84
2022/05/27 03:47:41;;;;;;;22.25;10.10;;;;;;;13.45;97.30;101785.56;5060309;28;20038;-84
2022/05/27 03:50:10;;;;;;;21.83;9.98;;;;;;;13.47;97.27;101804.41;5063019;28;20024;-84
2022/05/27 03:52:45;;;;;;;22.00;10.68;;;;;;;13.50;98.15;101806.88;5052364;28;20499;-84
2022/05/27 03:55:14;;;;;;;25.27;9.60;;;;;;;13.51;97.82;101799.63;5051843;28;20029;-85
2022/05/27 03:57:40;;;;;;;22.95;8.70;;;;;;;13.54;97.57;101792.16;5051802;28;20029;-84
2022/05/27 04:00:07;;;;;;;18.45;6.65;;;;;;;13.56;96.85;101784.84;5052861;28;20067;-84
2022/05/27 04:02:32;;;;;;;20.77;6.57;;;;;;;13.53;95.37;101800.38;5057187;28;20101;-84
2022/05/27 04:04:58;;;;;;;16.08;5.43;;;;;;;13.46;93.96;101790.00;5053747;28;20484;-84
2022/05/27 04:07:23;;;;;;;21.45;4.60;;;;;;;13.49;93.46;101797.03;5054368;28;20040;-83
2022/05/27 04:09:48;;;;;;;10.23;4.05;;;;;;;13.47;93.81;101790.91;5058665;28;20052;-84
2022/05/27 04:12:14;;;;;;;13.68;4.78;;;;;;;13.48;94.90;101798.00;5056894;28;20408;-83
2022/05/27 04:14:39;;;;;;;19.63;5.78;;;;;;;13.44;94.67;101794.66;5068133;28;20035;-84
2022/05/27 04:19:48;;;;;;;19.92;6.60;;;;;;;13.42;96.25;101803.84;5081130;28;20563;-84
2022/05/27 04:22:14;;;;;;;18.77;7.20;;;;;;;13.42;96.70;101801.16;5053349;28;20032;-84
2022/05/27 04:24:39;;;;;;;20.92;8.00;;;;;;;13.44;97.26;101804.59;5067423;28;20036;-84
2022/05/27 04:27:15;;;;;;;20.75;7.82;;;;;;;13.45;97.81;101809.88;5061835;28;20039;-84
2022/05/27 04:29:44;;;;;;;19.13;7.47;;;;;;;13.45;98.03;101807.19;5053338;28;20414;-83
2022/05/27 04:32:09;;;;;;;20.77;7.18;;;;;;;13.45;98.38;101801.78;5068305;28;20032;-84
2022/05/27 04:34:35;;;;;;;19.67;7.10;;;;;;;13.50;98.65;101811.41;5065950;28;20065;-84
2022/05/27 04:37:00;;;;;;;21.15;8.38;;;;;;;13.53;98.82;101811.19;5068018;28;20031;-83
2022/05/27 04:39:25;;;;;;;19.20;8.10;;;;;;;13.51;98.82;101803.19;5064297;28;20016;-83
2022/05/27 04:41:51;;;;;;;20.55;7.90;;;;;;;13.56;99.28;101811.84;5060404;28;20333;-83
2022/05/27 04:44:16;;;;;;;22.85;8.27;;;;;;;13.55;99.21;101804.69;5065251;28;20130;-83
2022/05/27 04:46:44;;;;;;;20.55;9.02;;;;;;;13.57;99.72;101797.38;5068030;28;20068;-84
2022/05/27 04:49:50;;;;;;;19.30;7.82;;;;;;;13.60;99.85;101799.84;5067979;28;20548;-83
2022/05/27 04:51:55;;;;;;;21.85;8.13;;;;;;;13.61;99.91;101804.25;5063777;28;20048;-83
2022/05/27 04:54:20;;;;;;;19.40;8.45;;;;;;;13.66;99.71;101800.38;5062594;28;20054;-83
2022/05/27 04:56:45;;;;;;;20.95;8.65;;;;;;;13.66;99.56;101803.06;5078856;28;20029;-83
2022/05/27 04:59:10;;;;;;;20.27;8.60;;;;;;;13.68;99.36;101803.84;5058033;28;20052;-83
2022/05/27 05:01:36;;;;;;;24.42;9.02;;;;;;;13.69;99.87;101803.75;5054858;28;20056;-83
2022/05/27 05:04:01;;;;;;;20.75;8.40;;;;;;;13.72;100.00;101803.50;5052534;28;20040;-83
2022/05/27 05:06:26;;;;;;;21.60;8.23;;;;;;;13.77;100.00;101806.72;5061762;28;20400;-83
2022/05/27 05:08:51;;;;;;;22.52;9.32;;;;;;;13.81;100.00;101820.91;5057985;28;20036;-82
2022/05/27 05:11:17;;;;;;;23.85;9.45;;;;;;;13.86;100.00;101815.16;5059168;28;20052;-83
2022/05/27 05:13:42;;;;;;;25.70;8.38;;;;;;;13.87;99.88;101817.75;5048661;28;20189;-83
2022/05/27 05:16:09;;;;;;;22.30;8.77;;;;;;;13.90;99.75;101817.53;5050196;28;20055;-83
2022/05/27 05:18:34;;;;;;;23.67;9.50;;;;;;;13.93;100.00;101820.00;5056089;28;20421;-83
2022/05/27 05:20:59;;;;;;;23.27;8.98;;;;;;;13.96;99.83;101827.03;5063942;28;20036;-83
2022/05/27 05:23:24;;;;;;;23.52;9.02;;;;;;;13.99;99.57;101830.38;5063794;28;20040;-83
2022/05/27 05:25:50;;;;;;;21.80;8.65;;;;;;;14.02;99.03;101826.59;5065274;28;20047;-82
2022/05/27 05:28:15;;;;;;;23.75;8.05;;;;;;;14.03;99.05;101820.22;5055014;28;20055;-83
2022/05/27 05:30:40;;;;;;;20.88;8.57;;;;;;;14.05;99.17;101828.22;5056771;28;20472;-83
2022/05/27 05:33:06;;;;;;;24.58;8.02;;;;;;;14.07;99.07;101842.47;5060526;28;20040;-83
2022/05/27 05:35:31;;;;;;;25.10;8.30;;;;;;;14.09;99.19;101840.53;5071687;28;20023;-83
2022/05/27 05:37:57;;;;;;;27.58;9.32;;;;;;;14.11;97.29;101844.84;5065146;28;20090;-83
2022/05/27 05:40:22;;;;;;;20.30;7.32;;;;;;;14.12;96.67;101846.56;5054329;28;20047;-82
2022/05/27 05:42:47;;;;;;;21.70;8.70;;;;;;;14.15;96.56;101850.91;5060169;28;20040;-82
2022/05/27 05:45:15;;;;;;;21.15;7.00;;;;;;;14.13;95.75;101842.06;5065239;28;20020;-82
2022/05/27 05:47:41;;;;;;;26.63;8.43;;;;;;;14.13;95.86;101853.72;5067930;28;20071;-82
2022/05/27 05:50:06;;;;;;;23.23;7.63;;;;;;;14.17;95.67;101857.03;5071146;28;20028;-82
2022/05/27 05:52:32;;;;;;;22.05;6.75;;;;;;;14.19;95.96;101863.22;5068666;28;20423;-83
2022/05/27 05:54:57;;;;;;;22.30;6.80;;;;;;;14.22;95.39;101860.28;5060698;28;20123;-82
2022/05/27 05:57:22;;;;;;;21.00;6.50;;;;;;;14.22;94.55;101857.59;5062643;28;20391;-82
2022/05/27 05:59:47;;;;;;;24.88;6.88;;;;;;;14.22;93.64;101852.19;5057762;28;20033;-82
2022/05/27 06:02:13;;;;;;;22.75;6.55;;;;;;;14.26;95.55;101859.09;5074026;28;20071;-82
2022/05/27 06:04:38;;;;;;;19.90;6.97;;;;;;;14.29;95.60;101858.00;5059566;28;20116;-82
2022/05/27 06:07:04;;;;;;;19.73;6.07;;;;;;;14.30;94.66;101852.47;5080071;28;20387;-81
2022/05/27 06:09:29;;;;;;;18.50;6.05;;;;;;;14.37;96.97;101854.75;5061346;28;20044;-81
2022/05/27 06:11:56;;;;;;;18.85;5.93;;;;;;;14.37;95.39;101850.19;5058099;28;20041;-82
2022/05/27 06:14:22;;;;;;;20.83;6.03;;;;;;;14.41;95.30;101853.56;5060378;28;20060;-82
2022/05/27 06:16:47;;;;;;;25.35;6.60;;;;;;;14.44;94.41;101845.22;5072329;28;20481;-82
2022/05/27 06:19:13;;;;;;;25.45;7.03;;;;;;;14.45;93.78;101849.63;5074213;28;20031;-81
2022/05/27 06:21:38;;;;;;;22.58;6.28;;;;;;;14.48;92.67;101855.69;5056665;28;20032;-81
2022/05/27 06:24:03;;;;;;;17.05;4.90;;;;;;;14.49;91.72;101853.84;5048753;28;20033;-81
2022/05/27 06:26:29;;;;;;;18.83;5.18;;;;;;;14.50;90.02;101863.69;5052694;28;20037;-81
2022/05/27 06:34:25;;;;;;;17.70;4.93;;;;;;;14.57;91.93;101870.38;5066609;28;20105;-81
2022/05/27 06:36:55;;;;;;;19.65;4.60;;;;;;;14.58;92.44;101873.94;5063076;28;20035;-81
2022/05/27 06:39:21;;;;;;;18.25;5.25;;;;;;;14.57;89.07;101869.50;5072371;28;20128;-81
2022/05/27 06:41:46;;;;;;;19.85;4.97;;;;;;;14.61;91.48;101876.41;5069675;28;21523;-81
2022/05/27 06:44:11;;;;;;;20.17;5.25;;;;;;;14.59;89.10;101878.38;5065395;28;20479;-81
2022/05/27 06:46:37;;;;;;;17.40;4.65;;;;;;;14.57;86.14;101867.66;5065128;28;20492;-82
2022/05/27 06:49:04;;;;;;;19.60;5.28;;;;;;;14.60;85.92;101875.56;5066918;28;20492;-82
2022/05/27 06:51:29;;;;;;;17.50;4.38;;;;;;;14.61;85.84;101873.69;5066517;28;20383;-82
2022/05/27 06:53:55;;;;;;;16.00;4.95;;;;;;;14.65;89.57;101876.09;5062388;28;20031;-82
2022/05/27 06:56:21;;;;;;;17.13;4.50;;;;;;;14.67;87.11;101879.56;5064637;28;20496;-82
2022/05/27 06:58:47;;;;;;;12.32;4.25;;;;;;;14.71;90.11;101872.06;5055105;28;20071;-83
2022/05/27 07:01:12;;;;;;;13.15;3.92;;;;;;;14.75;85.85;101876.28;5065958;28;20090;-82
2022/05/27 07:03:38;;;;;;;17.27;4.72;;;;;;;14.79;85.09;101882.34;5068775;28;20055;-82
2022/05/27 07:06:06;;;;;;;13.95;3.95;;;;;;;14.81;83.56;101885.78;5071995;28;20380;-82
2022/05/27 07:08:31;;;;;;;17.13;4.38;;;;;;;14.87;80.82;101888.03;5077410;28;20037;-82
2022/05/27 07:10:56;;;;;;;15.00;4.10;;;;;;;14.89;77.87;101883.38;5071062;28;20036;-83
2022/05/27 07:13:22;;;;;;;13.23;4.32;;;;;;;14.96;80.89;101886.47;5077516;28;20034;-83
2022/05/27 07:15:47;;;;;;;19.90;5.28;;;;;;;14.99;80.98;101881.69;5067146;28;20108;-82
2022/05/27 07:18:12;;;;;;;22.95;5.80;;;;;;;15.02;81.01;101881.47;5068956;28;20035;-82
2022/05/27 07:20:38;;;;;;;16.10;4.50;;;;;;;14.99;78.69;101878.13;5069751;28;20464;-83
2022/05/27 07:23:04;;;;;;;18.90;5.10;;;;;;;14.99;79.29;101881.69;5070454;28;20111;-82
2022/05/27 07:25:34;;;;;;;14.70;4.53;;;;;;;14.99;76.98;101884.41;5071733;28;20027;-82
2022/05/27 07:28:00;;;;;;;13.68;4.43;;;;;;;15.04;79.53;101892.19;5077252;28;20040;-82
2022/05/27 07:30:25;;;;;;;14.93;4.88;;;;;;;15.05;78.33;101890.31;5075266;28;20383;-82
2022/05/27 07:32:50;;;;;;;16.17;4.55;;;;;;;15.08;76.42;101890.09;5070073;28;20080;-83
2022/05/27 07:35:16;;;;;;;17.52;4.72;;;;;;;15.11;75.53;101893.44;5077054;28;20020;-83
2022/05/27 07:37:41;;;;;;;17.13;5.10;;;;;;;15.23;80.38;101893.47;5075075;28;20432;-82
2022/05/27 07:40:07;;;;;;;15.68;5.38;;;;;;;15.24;82.48;101892.50;5065477;28;20028;-82
2022/05/27 07:42:32;;;;;;;17.95;4.53;;;;;;;15.31;77.44;101891.03;5069275;28;20621;-83
2022/05/27 07:44:58;;;;;;;16.25;4.32;;;;;;;15.37;75.26;101905.00;5065035;28;20044;-82
2022/05/27 07:47:24;;;;;;;18.52;4.47;;;;;;;15.40;74.04;101903.03;5065863;28;20103;-81
2022/05/27 07:49:49;;;;;;;18.13;4.70;;;;;;;15.44;74.75;101908.06;5063463;28;20024;-82
2022/05/27 07:52:14;;;;;;;11.90;3.70;;;;;;;15.46;72.54;101894.41;5065482;28;20063;-82
2022/05/27 07:54:40;;;;;;;12.45;4.10;;;;;;;15.51;73.60;101908.47;5065878;28;20150;-82
2022/05/27 07:57:23;;;;;;;14.82;4.53;;;;;;;15.55;74.13;101897.28;5084062;28;20486;-81
2022/05/27 07:59:59;;;;;;;14.75;5.10;;;;;;;15.65;76.43;101907.38;5068205;28;20097;-83
2022/05/27 08:02:25;;;;;;;18.30;5.47;;;;;;;15.64;72.81;101901.13;5067730;28;20115;-82
2022/05/27 08:04:54;;;;;;;22.02;6.65;;;;;;;15.69;73.81;101901.59;5066054;28;20028;-83
2022/05/27 08:07:20;;;;;;;16.38;4.90;;;;;;;15.74;70.70;101901.28;5064200;28;20036;-82
2022/05/27 08:09:47;;;;;;;17.35;5.22;;;;;;;15.82;72.59;101897.97;5071083;28;20032;-82
2022/05/27 08:12:12;;;;;;;14.15;4.72;;;;;;;15.91;76.60;101899.94;5078859;28;20073;-82
2022/05/27 08:14:38;;;;;;;18.95;4.85;;;;;;;15.94;73.12;101901.56;5060606;28;20024;-82
2022/05/27 08:17:03;;;;;;;15.85;4.40;;;;;;;15.90;75.83;101911.78;5067932;28;20027;-82
2022/05/27 08:19:29;;;;;;;15.82;5.53;;;;;;;15.84;74.30;101920.41;5075237;28;20032;-83
2022/05/27 08:21:54;;;;;;;16.13;5.65;;;;;;;15.74;78.11;101922.94;5079230;28;20024;-84
2022/05/27 08:24:20;;;;;;;15.40;5.18;;;;;;;15.62;79.37;101932.03;5069825;28;20449;-83
2022/05/27 08:26:46;;;;;;;13.95;4.50;;;;;;;15.45;79.73;101930.63;5072102;28;20028;-83
2022/05/27 08:29:13;;;;;;;18.45;4.10;;;;;;;15.39;75.25;101929.25;5075868;28;20085;-83
2022/05/27 08:31:38;;;;;;;15.38;4.38;;;;;;;15.40;75.55;101924.69;5067908;28;20040;-83
2022/05/27 08:39:37;;;;;;;20.65;5.28;;;;;;;15.81;72.79;101926.06;5075725;28;20039;-87
2022/05/27 08:42:12;;;;;;;14.80;4.78;;;;;;;15.89;70.48;101926.34;5074220;28;20052;-87
2022/05/27 08:44:50;;;;;;;16.20;5.13;;;;;;;15.95;72.07;101936.69;5050388;28;20062;-86
2022/05/27 08:47:25;;;;;;;22.42;5.65;;;;;;;16.01;72.38;101925.34;5070861;28;20035;-86
2022/05/27 08:50:07;;;;;;;19.98;5.90;;;;;;;16.12;74.42;101934.47;5070730;28;20036;-85
2022/05/27 08:52:44;;;;;;;16.65;4.38;;;;;;;16.11;71.93;101939.06;5040314;28;20035;-86
2022/05/27 09:01:24;;;;;;;14.32;4.20;;;;;;;16.06;65.26;101939.41;5065876;28;20132;-84
2022/05/27 09:04:09;;;;;;;16.08;4.63;;;;;;;16.12;68.48;101939.91;5061821;28;20108;-85
2022/05/27 09:06:41;;;;;;;15.18;4.18;;;;;;;16.17;63.02;101943.97;5058941;28;20855;-86
2022/05/27 09:09:15;;;;;;;14.35;4.13;;;;;;;16.21;62.11;101937.34;5070140;28;20387;-86
2022/05/27 09:12:08;;;;;;;14.07;4.22;;;;;;;16.27;64.13;101957.69;5067884;28;20173;-86
2022/05/27 09:14:36;;;;;;;18.67;4.13;;;;;;;16.25;61.90;101951.50;5064429;28;20079;-84
2022/05/27 09:17:10;;;;;;;15.80;4.38;;;;;;;16.31;64.59;101942.00;5064876;28;20052;-85
2022/05/27 09:19:59;;;;;;;17.27;4.22;;;;;;;16.37;63.88;101946.94;5063023;28;20480;-89
2022/05/27 09:22:44;;;;;;;13.40;3.88;;;;;;;16.40;63.09;101947.56;5076013;28;20491;-85
2022/05/27 09:25:18;;;;;;;16.08;4.70;;;;;;;16.53;64.47;101943.84;5064669;28;20029;-85
2022/05/27 09:28:14;;;;;;;16.02;4.35;;;;;;;16.54;64.18;101959.16;5072860;28;20123;-86
2022/05/27 09:30:41;;;;;;;16.42;4.35;;;;;;;16.50;62.49;101963.09;5064026;28;20041;-86
2022/05/27 09:33:10;;;;;;;17.90;3.97;;;;;;;16.41;59.30;101964.69;5066169;28;20036;-85
2022/05/27 09:35:42;;;;;;;16.73;4.75;;;;;;;16.36;60.97;101970.50;5078046;28;20367;-85
2022/05/27 09:38:14;;;;;;;17.55;3.65;;;;;;;16.36;59.76;101975.06;5056320;28;20040;-84
2022/05/27 09:40:48;;;;;;;16.63;4.38;;;;;;;16.34;60.09;101969.78;5073759;28;20109;-85
2022/05/27 09:43:16;;;;;;;17.80;4.10;;;;;;;16.28;60.60;101974.81;5077543;28;20024;-85
2022/05/27 09:45:43;;;;;;;17.95;5.15;;;;;;;16.25;61.25;101984.94;5067130;28;20061;-86
2022/05/27 09:48:10;;;;;;;17.85;5.03;;;;;;;16.18;59.27;101980.09;5079328;28;20043;-83
2022/05/27 09:50:45;;;;;;;18.17;4.68;;;;;;;16.18;60.49;101980.09;5069326;28;20431;-85
2022/05/27 09:53:33;;;;;;;15.75;4.47;;;;;;;16.15;57.35;101988.47;5068617;28;20021;-83
2022/05/27 09:56:04;;;;;;;17.00;4.35;;;;;;;16.15;56.74;101991.19;5060023;28;20044;-85
2022/05/27 09:58:34;;;;;;;15.05;4.10;;;;;;;16.16;55.47;101992.94;5069394;28;20102;-85
2022/05/27 10:01:03;;;;;;;17.00;5.32;;;;;;;16.21;57.40;101988.00;5068442;28;20024;-86
2022/05/27 10:03:30;;;;;;;19.55;4.57;;;;;;;16.26;57.35;101985.78;5071829;28;20032;-85
2022/05/27 10:06:04;;;;;;;11.55;3.03;;;;;;;16.25;56.01;101987.66;5072433;28;20107;-84
2022/05/27 10:08:38;;;;;;;12.10;3.47;;;;;;;16.25;56.96;102003.03;5074654;28;20407;-86
2022/05/27 10:11:14;;;;;;;14.88;4.40;;;;;;;16.22;55.85;101993.31;5074359;28;20511;-85
2022/05/27 10:13:41;;;;;;;13.65;3.10;;;;;;;16.27;53.71;102000.19;5084544;28;20039;-85
2022/05/27 10:16:11;;;;;;;12.38;3.70;;;;;;;16.31;56.23;101986.28;5078473;28;20333;-84
2022/05/27 10:18:41;;;;;;;22.20;4.40;;;;;;;16.40;55.13;101982.84;5080003;28;20069;-84
2022/05/27 10:21:13;;;;;;;16.48;4.32;;;;;;;16.51;56.87;101990.09;5087080;28;20024;-83
2022/05/27 10:23:41;;;;;;;21.77;4.45;;;;;;;16.56;53.54;101989.72;5069677;28;20054;-83
2022/05/27 10:26:24;;;;;;;15.97;3.67;;;;;;;16.69;55.11;102000.47;5073365;28;20028;-85
2022/05/27 10:29:02;;;;;;;16.20;3.78;;;;;;;16.76;54.42;102002.56;5065150;28;20029;-81
2022/05/27 10:31:29;;;;;;;16.13;3.38;;;;;;;16.76;53.10;101986.28;5059423;28;20024;-85
2022/05/27 10:33:54;;;;;;;14.68;3.83;;;;;;;16.77;54.23;101990.72;5055048;28;20021;-84
2022/05/27 10:36:39;;;;;;;14.07;3.55;;;;;;;16.71;51.86;101999.34;5058884;28;20020;-84
2022/05/27 10:39:26;;;;;;;11.75;3.40;;;;;;;16.67;51.32;101995.16;5060030;28;20025;-86
2022/05/27 10:42:26;;;;;;;13.02;3.50;;;;;;;16.80;54.42;101995.03;5055045;28;20031;-86
2022/05/27 10:44:55;;;;;;;20.63;4.28;;;;;;;16.87;53.71;101993.56;5062762;28;20536;-86
2022/05/27 10:47:52;;;;;;;16.10;4.20;;;;;;;16.81;53.93;102009.47;5056881;28;20025;-84
2022/05/27 10:50:32;;;;;;;14.20;3.95;;;;;;;16.68;53.44;101998.75;4965282;28;20042;-85
2022/05/27 10:53:26;;;;;;;13.32;3.95;;;;;;;16.53;53.92;101995.41;4971015;28;20069;-86
2022/05/27 10:56:25;;;;;;;13.55;4.22;;;;;;;16.49;52.30;102007.53;4965765;28;20034;-87
2022/05/27 11:02:04;;;;;;;15.30;3.60;;;;;;;16.59;51.69;102003.94;4973508;28;20134;-86
2022/05/27 11:04:53;;;;;;;14.93;3.30;;;;;;;16.60;50.24;101997.53;4956893;28;20027;-84
2022/05/27 11:07:57;;;;;;;15.68;3.75;;;;;;;16.67;50.63;102010.59;4961994;28;20438;-87
2022/05/27 11:10:36;;;;;;;12.77;3.33;;;;;;;16.71;49.56;102002.06;4984488;28;20051;-86
2022/05/27 11:16:39;;;;;;;16.25;3.97;;;;;;;16.86;50.68;102004.53;4971914;28;20317;-85
2022/05/27 11:19:23;;;;;;;17.35;4.00;;;;;;;16.87;50.69;102001.72;4917273;29;20352;-85
2022/05/27 11:22:21;;;;;;;14.57;3.85;;;;;;;16.88;52.68;102006.16;4933460;29;20511;-86
2022/05/27 11:25:06;;;;;;;18.15;3.80;;;;;;;16.86;52.05;101993.66;4917134;29;20027;-86
2022/05/27 11:27:48;;;;;;;15.07;3.88;;;;;;;16.92;54.46;101999.47;4965530;28;20049;-85
2022/05/27 11:30:24;;;;;;;16.60;3.78;;;;;;;16.95;50.97;102001.09;4960756;28;20038;-86
2022/05/27 11:33:21;;;;;;;15.95;3.58;;;;;;;16.99;50.97;102005.28;4969125;28;20639;-85
2022/05/27 11:36:17;;;;;;;12.57;3.15;;;;;;;16.89;51.40;102007.88;4976428;28;20054;-84
2022/05/27 11:39:01;;;;;;;15.15;3.40;;;;;;;16.81;53.59;102004.03;4971023;28;20064;-86
2022/05/27 11:41:38;;;;;;;18.60;4.03;;;;;;;16.72;53.21;102011.94;4975550;28;20510;-85
2022/05/27 11:44:31;;;;;;;22.20;4.55;;;;;;;16.69;51.67;102016.75;4983295;28;20038;-85
2022/05/27 11:47:08;;;;;;;18.25;4.32;;;;;;;16.78;53.05;102002.44;4968554;28;20034;-87
2022/05/27 11:49:57;;;;;;;14.20;4.35;;;;;;;16.89;54.72;102018.75;4989645;28;20042;-86
2022/05/27 11:52:50;;;;;;;12.20;4.00;;;;;;;17.02;54.43;102017.75;4958997;28;20045;-84
2022/05/27 11:55:43;;;;;;;15.55;3.90;;;;;;;17.08;52.30;102003.66;5026350;28;20120;-85
2022/05/27 11:58:18;;;;;;;15.55;3.58;;;;;;;17.12;50.01;102016.84;5052176;28;20488;-85
2022/05/27 12:00:53;;;;;;;11.75;3.22;;;;;;;17.11;48.56;102011.56;5051092;28;20376;-85
2022/05/27 12:04:05;;;;;;;14.63;4.18;;;;;;;17.14;50.65;102010.44;5050431;28;20124;-85
2022/05/27 12:07:00;;;;;;;15.73;4.13;;;;;;;17.10;51.58;102010.69;5048390;28;20396;-85
2022/05/27 12:09:30;;;;;;;17.55;4.65;;;;;;;17.01;50.27;102016.88;5061574;28;20040;-86
2022/05/27 12:12:06;;;;;;;17.42;3.92;;;;;;;16.96;48.78;102024.53;5065248;28;20052;-87